Time;durP1;ratioP1;P1;durP2;ratioP2;P2;SDS_P1;SDS_P2;PMS_P1;PMS_P2;Temp;Humidity;BMP_temperature;BMP_pressure;BME280_temperature;BME280_humidity;BME280_pressure;Samples;Min_cycle;Max_cycle;Signal;HPM_P1;HPM_P2
2022/12/27 00:00:18;;;;;;;3.20;2.17;;;3.20;97.60;;;;;;5090109;28;20487;-67
2022/12/27 00:02:45;;;;;;;5.05;2.50;;;3.10;98.00;;;;;;5103615;28;20421;-67
2022/12/27 00:05:14;;;;;;;5.75;2.03;;;3.10;98.20;;;;;;5096507;28;20410;-67
2022/12/27 00:07:41;;;;;;;6.10;2.30;;;3.10;98.40;;;;;;5088201;28;21045;-67
2022/12/27 00:10:09;;;;;;;5.97;2.22;;;3.10;98.70;;;;;;5088188;28;20424;-66
2022/12/27 00:12:36;;;;;;;5.72;2.20;;;3.10;98.80;;;;;;5089695;28;20433;-67
2022/12/27 00:15:03;;;;;;;5.10;2.10;;;3.10;98.80;;;;;;5108493;28;20419;-66
2022/12/27 00:17:30;;;;;;;5.85;2.63;;;3.00;98.90;;;;;;5101216;28;20433;-67
2022/12/27 00:19:56;;;;;;;4.27;2.30;;;2.90;99.30;;;;;;5096604;28;20963;-67
2022/12/27 00:22:24;;;;;;;6.30;2.30;;;2.90;99.50;;;;;;5087912;28;20421;-67
2022/12/27 00:24:51;;;;;;;3.55;2.30;;;2.90;99.70;;;;;;5088004;28;20409;-66
2022/12/27 00:27:18;;;;;;;4.72;2.10;;;3.00;99.60;;;;;;5093323;28;20432;-67
2022/12/27 00:29:45;;;;;;;5.00;2.20;;;3.00;99.70;;;;;;5108079;28;20408;-67
2022/12/27 00:32:11;;;;;;;5.18;2.30;;;3.00;99.80;;;;;;5098529;28;20817;-67
2022/12/27 00:34:38;;;;;;;5.77;2.50;;;2.90;99.90;;;;;;5092298;28;20422;-67
2022/12/27 00:37:05;;;;;;;4.40;2.58;;;3.00;99.90;;;;;;5087861;28;20413;-67
2022/12/27 00:39:34;;;;;;;6.93;2.17;;;2.90;99.90;;;;;;5103610;28;20845;-67
2022/12/27 00:42:00;;;;;;;4.47;1.90;;;2.90;99.80;;;;;;5108095;28;20774;-67
2022/12/27 00:44:27;;;;;;;4.45;2.30;;;2.90;99.90;;;;;;5107650;28;20412;-67
2022/12/27 00:46:54;;;;;;;5.43;2.28;;;2.90;99.90;;;;;;5098065;28;20430;-67
2022/12/27 00:49:21;;;;;;;4.97;2.35;;;2.90;99.90;;;;;;5099536;28;20905;-67
2022/12/27 00:51:47;;;;;;;5.97;2.10;;;2.90;99.90;;;;;;5102329;28;20426;-67
2022/12/27 00:54:14;;;;;;;3.92;2.10;;;2.90;99.90;;;;;;5102516;28;20428;-67
2022/12/27 00:56:42;;;;;;;4.97;2.20;;;3.00;99.90;;;;;;5096091;28;20422;-67
2022/12/27 00:59:10;;;;;;;3.30;2.00;;;2.90;99.90;;;;;;5091850;28;20410;-66
2022/12/27 01:01:38;;;;;;;4.65;2.10;;;2.90;99.90;;;;;;5092487;28;20425;-66
2022/12/27 01:04:05;;;;;;;6.38;2.00;;;2.80;99.90;;;;;;5099651;28;20981;-66
2022/12/27 01:06:33;;;;;;;4.75;1.83;;;2.80;99.90;;;;;;5091914;28;20422;-66
2022/12/27 01:09:01;;;;;;;3.73;1.70;;;2.90;99.90;;;;;;5091420;28;21271;-67
2022/12/27 01:11:28;;;;;;;4.30;2.00;;;2.90;99.90;;;;;;5091467;28;20417;-66
2022/12/27 01:13:58;;;;;;;3.97;2.00;;;2.90;99.90;;;;;;5090932;28;20421;-66
2022/12/27 01:16:26;;;;;;;4.35;2.20;;;2.90;99.90;;;;;;5097236;28;20419;-66
2022/12/27 01:18:53;;;;;;;5.75;2.10;;;2.90;99.90;;;;;;5102242;28;20423;-66
2022/12/27 01:21:21;;;;;;;5.37;2.03;;;2.90;99.90;;;;;;5107343;28;20865;-67
2022/12/27 01:23:49;;;;;;;4.22;2.13;;;2.90;99.90;;;;;;5111246;28;20411;-66
2022/12/27 01:26:18;;;;;;;4.20;2.00;;;2.90;99.90;;;;;;5111354;28;20416;-68
2022/12/27 01:28:45;;;;;;;5.03;2.00;;;2.90;99.90;;;;;;5111680;28;20411;-67
2022/12/27 01:31:16;;;;;;;4.78;2.00;;;2.80;99.90;;;;;;5106807;28;20432;-66
2022/12/27 01:33:43;;;;;;;3.72;1.80;;;2.80;99.90;;;;;;5099162;28;20425;-66
2022/12/27 01:36:11;;;;;;;6.60;2.20;;;2.80;99.90;;;;;;5090916;28;20413;-66
2022/12/27 01:38:41;;;;;;;3.55;2.20;;;2.80;99.90;;;;;;5090660;28;20414;-66
2022/12/27 01:43:53;;;;;;;5.05;2.22;;;2.90;99.90;;;;;;5090300;28;20489;-67
2022/12/27 01:46:21;;;;;;;5.03;1.90;;;3.00;99.90;;;;;;5094040;28;20430;-66
2022/12/27 01:48:48;;;;;;;6.30;2.40;;;3.10;99.90;;;;;;5099310;28;20418;-66
2022/12/27 01:51:15;;;;;;;5.32;2.00;;;3.10;99.90;;;;;;5090620;28;20436;-67
2022/12/27 01:53:46;;;;;;;6.60;2.45;;;3.20;99.90;;;;;;5090198;28;20432;-66
2022/12/27 01:56:17;;;;;;;4.20;1.80;;;3.20;99.90;;;;;;5090645;28;20414;-66
2022/12/27 01:58:48;;;;;;;4.15;1.80;;;3.20;99.90;;;;;;5097976;28;20426;-66
2022/12/27 02:01:20;;;;;;;5.68;2.00;;;3.20;99.90;;;;;;5096514;28;20436;-66
2022/12/27 02:03:53;;;;;;;5.00;1.90;;;3.30;99.90;;;;;;5098536;28;20487;-67
2022/12/27 02:06:21;;;;;;;4.60;1.75;;;3.40;99.90;;;;;;5109021;28;20435;-66
2022/12/27 02:08:55;;;;;;;4.65;2.38;;;3.40;99.90;;;;;;5111973;28;20423;-66
2022/12/27 02:14:06;;;;;;;5.25;1.70;;;3.60;99.90;;;;;;5100300;28;20422;-67
2022/12/27 02:16:33;;;;;;;4.78;1.90;;;3.70;99.90;;;;;;5101145;28;20427;-68
2022/12/27 02:19:01;;;;;;;5.10;1.77;;;3.80;99.90;;;;;;5100156;28;20416;-67
2022/12/27 02:21:50;;;;;;;4.72;1.60;;;3.80;99.90;;;;;;5090328;28;20414;-67
2022/12/27 02:24:42;;;;;;;5.82;1.85;;;3.90;99.90;;;;;;5090088;28;20414;-67
2022/12/27 02:27:20;;;;;;;4.47;1.60;;;3.90;99.90;;;;;;5090669;28;20454;-67
2022/12/27 02:29:59;;;;;;;4.73;1.90;;;3.90;99.90;;;;;;5098349;28;20456;-67
2022/12/27 02:32:30;;;;;;;5.15;2.00;;;4.00;99.90;;;;;;5103106;28;20432;-67
2022/12/27 02:35:08;;;;;;;4.88;1.70;;;3.90;99.90;;;;;;5104048;28;20419;-66
2022/12/27 02:37:39;;;;;;;3.92;1.70;;;3.90;99.90;;;;;;5109877;28;20409;-66
2022/12/27 02:54:25;;;;;;;5.22;1.85;;;4.10;99.90;;;;;;5104715;28;20428;-67
2022/12/27 02:57:08;;;;;;;4.32;1.60;;;4.20;99.90;;;;;;5097750;28;20455;-66
2022/12/27 03:06:38;;;;;;;6.78;1.48;;;4.20;99.90;;;;;;5104183;28;21197;-66
2022/12/27 03:08:49;;;;;;;4.70;1.60;;;4.30;99.90;;;;;;5109581;28;20401;-66
2022/12/27 03:17:02;;;;;;;3.70;1.70;;;4.30;99.90;;;;;;5097138;28;20931;-66
2022/12/27 03:33:18;;;;;;;5.25;1.73;;;4.20;99.90;;;;;;5093146;28;20961;-66
2022/12/27 03:38:37;;;;;;;4.25;1.60;;;4.30;99.90;;;;;;5105316;28;20789;-66
2022/12/27 03:43:52;;;;;;;3.78;1.40;;;4.40;99.90;;;;;;5108657;28;20433;-66
2022/12/27 03:46:35;;;;;;;4.60;1.60;;;4.40;99.90;;;;;;5109046;28;20415;-66
2022/12/27 03:49:11;;;;;;;5.28;1.65;;;4.40;99.90;;;;;;5099568;28;20421;-67
2022/12/27 03:51:44;;;;;;;3.45;1.80;;;4.40;99.90;;;;;;5093301;28;20444;-67
2022/12/27 03:54:16;;;;;;;2.83;1.48;;;4.50;99.90;;;;;;5093046;28;20941;-65
2022/12/27 03:56:43;;;;;;;3.00;1.55;;;4.50;99.90;;;;;;5108862;28;20412;-67
2022/12/27 03:59:12;;;;;;;3.88;1.58;;;4.60;99.90;;;;;;5108763;28;21002;-66
2022/12/27 04:01:40;;;;;;;2.92;1.38;;;4.70;99.60;;;;;;5108562;28;20400;-66
2022/12/27 04:04:06;;;;;;;4.53;1.70;;;4.70;99.60;;;;;;5098792;28;20513;-66
2022/12/27 04:06:33;;;;;;;5.88;1.50;;;4.70;99.40;;;;;;5108208;28;20416;-66
2022/12/27 04:36:24;;;;;;;4.00;1.43;;;4.80;99.10;;;;;;5100738;28;20843;-66
2022/12/27 04:38:50;;;;;;;5.18;1.80;;;4.70;99.10;;;;;;5087543;28;20417;-68
2022/12/27 04:55:15;;;;;;;5.28;1.88;;;4.80;98.60;;;;;;5087434;28;20394;-68
2022/12/27 04:57:43;;;;;;;4.25;1.67;;;4.80;98.60;;;;;;5099834;28;20408;-67
2022/12/27 05:03:06;;;;;;;5.65;1.80;;;4.80;98.70;;;;;;5066776;28;20418;-67
2022/12/27 05:05:34;;;;;;;4.25;2.00;;;4.70;98.60;;;;;;5101947;28;20416;-67
2022/12/27 05:16:17;;;;;;;5.35;1.60;;;5.00;97.70;;;;;;5092895;28;21039;-66
2022/12/27 05:18:43;;;;;;;5.00;1.70;;;4.90;97.60;;;;;;5094885;28;20433;-67
2022/12/27 05:21:10;;;;;;;6.77;1.83;;;4.90;97.50;;;;;;5102980;28;20909;-68
2022/12/27 05:26:23;;;;;;;4.88;1.60;;;4.90;98.10;;;;;;5095594;28;20830;-68
2022/12/27 05:28:53;;;;;;;3.67;1.58;;;4.80;97.40;;;;;;5106227;28;20408;-68
2022/12/27 05:31:20;;;;;;;4.60;1.80;;;4.90;97.20;;;;;;5107689;28;20420;-67
2022/12/27 05:33:47;;;;;;;3.85;1.65;;;4.90;97.10;;;;;;5094807;28;20422;-67
2022/12/27 05:36:14;;;;;;;5.90;1.90;;;4.90;97.20;;;;;;5101127;28;20431;-67
2022/12/27 05:38:41;;;;;;;6.00;1.90;;;4.90;97.10;;;;;;5112753;27;20509;-67
2022/12/27 05:41:08;;;;;;;4.28;1.92;;;4.90;97.00;;;;;;5093175;28;20426;-67
2022/12/27 05:43:35;;;;;;;3.95;1.70;;;4.90;97.10;;;;;;5098529;28;20410;-67
2022/12/27 05:46:08;;;;;;;3.13;1.77;;;4.80;97.10;;;;;;5090582;28;20892;-67
2022/12/27 05:48:36;;;;;;;7.68;1.80;;;4.80;97.30;;;;;;5094073;28;20943;-67
2022/12/27 05:51:07;;;;;;;4.30;1.50;;;4.70;97.60;;;;;;5107873;28;20420;-67
2022/12/27 05:53:33;;;;;;;3.15;1.50;;;4.60;97.80;;;;;;5093428;28;20420;-67
2022/12/27 05:56:01;;;;;;;5.57;1.77;;;4.60;98.00;;;;;;5103038;28;20419;-66
2022/12/27 05:58:28;;;;;;;6.95;1.70;;;4.50;98.00;;;;;;5110226;28;20418;-67
2022/12/27 06:00:55;;;;;;;4.93;2.10;;;4.50;98.30;;;;;;5101818;28;20435;-67
2022/12/27 06:03:23;;;;;;;3.60;1.50;;;4.50;98.40;;;;;;5097330;28;20511;-67
2022/12/27 06:05:50;;;;;;;5.35;1.50;;;4.60;98.10;;;;;;5103342;28;20427;-67
2022/12/27 06:08:17;;;;;;;6.30;1.55;;;4.60;97.90;;;;;;5097201;28;20408;-67
2022/12/27 06:10:43;;;;;;;3.90;1.60;;;4.60;97.90;;;;;;5110644;28;20412;-67
2022/12/27 06:13:10;;;;;;;4.53;1.60;;;4.60;97.80;;;;;;5106009;28;20457;-67
2022/12/27 06:15:37;;;;;;;5.95;2.10;;;4.60;97.80;;;;;;5097821;28;20410;-67
2022/12/27 06:18:05;;;;;;;5.13;2.00;;;4.60;97.80;;;;;;5104411;28;20412;-66
2022/12/27 06:20:33;;;;;;;4.70;1.80;;;4.50;97.90;;;;;;5101793;28;20417;-67
2022/12/27 06:23:00;;;;;;;5.63;1.67;;;4.40;98.10;;;;;;5108073;28;20417;-67
2022/12/27 06:25:27;;;;;;;5.55;2.00;;;4.30;98.50;;;;;;5091771;28;20888;-66
2022/12/27 06:27:53;;;;;;;5.10;1.70;;;4.30;98.90;;;;;;5117991;22;20418;-71
2022/12/27 06:30:20;;;;;;;6.20;2.00;;;4.30;99.20;;;;;;5085160;28;20429;-69
2022/12/27 06:32:47;;;;;;;6.90;1.75;;;4.30;99.40;;;;;;5086592;28;20884;-70
2022/12/27 06:35:14;;;;;;;5.20;1.95;;;4.30;99.50;;;;;;5077961;28;20818;-70
2022/12/27 06:37:42;;;;;;;5.53;2.00;;;4.40;99.50;;;;;;5083746;28;20427;-70
2022/12/27 06:40:10;;;;;;;6.40;2.30;;;4.40;99.40;;;;;;5074971;28;20431;-70
2022/12/27 06:42:37;;;;;;;6.07;2.20;;;4.50;99.20;;;;;;5069203;28;20475;-70
2022/12/27 06:45:05;;;;;;;3.50;1.80;;;4.50;99.10;;;;;;5078477;28;20404;-70
2022/12/27 06:47:32;;;;;;;5.35;2.13;;;4.60;98.90;;;;;;5069329;28;20501;-72
2022/12/27 06:49:59;;;;;;;5.25;1.85;;;4.70;98.80;;;;;;5067377;28;20427;-69
2022/12/27 06:52:26;;;;;;;4.97;1.92;;;4.60;98.70;;;;;;5067649;28;20415;-71
2022/12/27 06:54:54;;;;;;;6.57;1.90;;;4.70;98.60;;;;;;5067814;28;20683;-70
2022/12/27 06:57:20;;;;;;;4.72;1.70;;;4.70;98.40;;;;;;5067428;28;20499;-70
2022/12/27 06:59:47;;;;;;;4.60;2.00;;;4.70;98.50;;;;;;5068277;28;20482;-69
2022/12/27 07:02:14;;;;;;;4.65;1.58;;;4.70;98.60;;;;;;5058087;28;20423;-69
2022/12/27 07:04:41;;;;;;;4.63;1.80;;;4.70;98.70;;;;;;5066135;28;20427;-70
2022/12/27 07:07:07;;;;;;;6.20;1.70;;;4.60;98.80;;;;;;5066793;28;20423;-71
2022/12/27 07:09:34;;;;;;;5.40;1.80;;;4.60;98.90;;;;;;5067267;28;20411;-72
2022/12/27 07:12:02;;;;;;;6.28;1.90;;;4.60;98.90;;;;;;5066845;28;20427;-69
2022/12/27 07:14:29;;;;;;;6.23;2.70;;;4.50;99.00;;;;;;5064442;28;21187;-70
2022/12/27 07:16:55;;;;;;;7.68;2.00;;;4.50;99.40;;;;;;5066844;28;20435;-69
2022/12/27 07:19:22;;;;;;;5.57;2.28;;;4.50;99.40;;;;;;5065867;28;20959;-70
2022/12/27 07:21:49;;;;;;;7.80;2.60;;;4.60;99.60;;;;;;5066014;28;20435;-70
2022/12/27 07:24:15;;;;;;;8.10;2.67;;;4.50;99.50;;;;;;5066543;28;20415;-69
2022/12/27 07:26:42;;;;;;;7.28;4.22;;;4.50;99.60;;;;;;5066379;28;20462;-70
2022/12/27 07:29:11;;;;;;;5.47;2.97;;;4.50;99.70;;;;;;5066381;28;20427;-70
2022/12/27 07:31:37;;;;;;;8.20;3.10;;;4.50;99.90;;;;;;5066595;28;20515;-69
2022/12/27 07:34:04;;;;;;;5.50;2.60;;;4.40;99.90;;;;;;5065303;28;20423;-69
2022/12/27 07:36:35;;;;;;;5.83;2.90;;;4.40;99.90;;;;;;5066442;28;20426;-70
2022/12/27 07:39:02;;;;;;;5.15;2.00;;;4.40;99.90;;;;;;5066051;28;20416;-70
2022/12/27 07:41:28;;;;;;;5.07;1.88;;;4.40;99.90;;;;;;5066460;28;20438;-71
2022/12/27 07:43:55;;;;;;;4.35;2.10;;;4.30;99.90;;;;;;5065431;28;20427;-70
2022/12/27 07:46:25;;;;;;;4.00;1.90;;;4.20;99.90;;;;;;5066244;28;20897;-71
2022/12/27 07:48:54;;;;;;;4.68;1.98;;;4.20;99.90;;;;;;5064758;28;20435;-70
2022/12/27 07:51:21;;;;;;;4.22;2.17;;;4.10;99.90;;;;;;5066098;28;20435;-70
2022/12/27 07:53:49;;;;;;;6.10;2.00;;;4.10;99.90;;;;;;5065622;28;20430;-69
2022/12/27 07:56:18;;;;;;;4.80;2.35;;;4.00;99.90;;;;;;5065825;28;20438;-70
2022/12/27 07:58:47;;;;;;;5.72;2.00;;;4.00;99.90;;;;;;5065979;28;20419;-69
2022/12/27 08:01:16;;;;;;;5.82;2.20;;;4.00;99.90;;;;;;5066539;28;20419;-70
2022/12/27 08:03:44;;;;;;;5.43;2.20;;;4.00;99.90;;;;;;5065151;28;21187;-70
2022/12/27 08:06:21;;;;;;;5.80;2.13;;;4.00;99.90;;;;;;5065943;28;20439;-70
2022/12/27 08:08:48;;;;;;;8.32;2.90;;;3.90;99.90;;;;;;5053843;28;20919;-70
2022/12/27 08:11:15;;;;;;;6.90;2.92;;;3.90;99.90;;;;;;5066765;28;20422;-69
2022/12/27 08:13:42;;;;;;;7.70;2.90;;;3.90;99.90;;;;;;5065767;28;20428;-70
2022/12/27 08:16:14;;;;;;;6.60;2.67;;;3.80;99.90;;;;;;5069940;28;20426;-70
2022/12/27 08:18:41;;;;;;;5.55;2.85;;;3.90;99.90;;;;;;5074412;28;20434;-69
2022/12/27 08:21:09;;;;;;;6.75;3.97;;;4.00;99.90;;;;;;5071812;28;20430;-70
2022/12/27 08:23:35;;;;;;;5.55;2.40;;;4.10;99.90;;;;;;5072928;28;20422;-72
2022/12/27 08:26:02;;;;;;;6.20;2.40;;;4.20;99.90;;;;;;5073258;28;20430;-72
2022/12/27 08:28:30;;;;;;;4.70;2.40;;;4.40;99.90;;;;;;5067967;28;20454;-72
2022/12/27 08:30:58;;;;;;;4.40;2.30;;;4.50;99.90;;;;;;5070185;28;20435;-72
2022/12/27 08:33:25;;;;;;;7.63;2.40;;;4.50;99.90;;;;;;5068073;28;20511;-72
2022/12/27 08:35:52;;;;;;;6.75;2.53;;;4.50;99.80;;;;;;5070508;28;20416;-72
2022/12/27 08:38:20;;;;;;;6.00;2.50;;;4.50;99.90;;;;;;5067902;28;20417;-72
2022/12/27 08:40:47;;;;;;;6.45;2.92;;;4.70;99.90;;;;;;5066608;28;20419;-72
2022/12/27 08:43:15;;;;;;;5.65;2.40;;;4.80;99.60;;;;;;5067177;28;20522;-72
2022/12/27 08:45:42;;;;;;;6.30;2.25;;;5.00;99.00;;;;;;5065885;28;20908;-72
2022/12/27 08:48:08;;;;;;;6.47;2.70;;;5.20;98.00;;;;;;5055475;28;20435;-72
2022/12/27 08:50:35;;;;;;;5.03;2.47;;;5.10;97.80;;;;;;5072774;28;20430;-72
2022/12/27 08:53:04;;;;;;;6.13;2.50;;;5.20;98.20;;;;;;5081625;28;20431;-72
2022/12/27 08:55:33;;;;;;;5.93;2.95;;;5.30;98.30;;;;;;5074654;28;20443;-73
2022/12/27 08:58:03;;;;;;;5.53;2.80;;;5.50;97.80;;;;;;5082576;28;20462;-73
2022/12/27 09:00:30;;;;;;;6.05;2.47;;;5.70;97.20;;;;;;5073481;28;20418;-74
2022/12/27 09:02:57;;;;;;;6.50;3.00;;;5.90;96.90;;;;;;5068475;28;20522;-72
2022/12/27 09:05:25;;;;;;;6.07;2.80;;;6.10;95.80;;;;;;5075078;28;20415;-72
2022/12/27 09:07:52;;;;;;;6.80;2.75;;;6.30;95.10;;;;;;5071884;28;20534;-72
2022/12/27 09:10:20;;;;;;;5.47;2.78;;;6.50;94.80;;;;;;5072474;28;20654;-72
2022/12/27 09:12:48;;;;;;;6.35;2.33;;;6.60;93.70;;;;;;5076201;28;20597;-73
2022/12/27 09:15:15;;;;;;;5.35;2.60;;;6.70;93.10;;;;;;5068643;28;20747;-72
2022/12/27 09:17:42;;;;;;;5.25;2.90;;;6.80;93.70;;;;;;5066954;28;20468;-72
2022/12/27 09:20:11;;;;;;;5.60;3.10;;;6.90;93.10;;;;;;5067549;28;20923;-72
2022/12/27 09:22:38;;;;;;;6.97;3.00;;;7.00;92.90;;;;;;5067501;28;20471;-72
2022/12/27 09:25:06;;;;;;;4.95;3.20;;;7.00;92.00;;;;;;5078504;28;20494;-71
2022/12/27 09:27:34;;;;;;;6.10;3.42;;;7.10;92.80;;;;;;5068170;28;20414;-71
2022/12/27 09:30:03;;;;;;;8.05;4.20;;;7.20;92.20;;;;;;5066785;28;20412;-72
2022/12/27 09:32:29;;;;;;;7.07;3.10;;;7.30;91.80;;;;;;5066181;28;20435;-72
2022/12/27 09:34:56;;;;;;;6.05;3.38;;;7.40;91.60;;;;;;5067474;28;20454;-72
2022/12/27 09:37:23;;;;;;;4.90;2.60;;;7.60;91.30;;;;;;5068259;28;20420;-72
2022/12/27 09:39:50;;;;;;;4.38;2.70;;;7.80;90.70;;;;;;5068086;28;20423;-71
2022/12/27 09:42:28;;;;;;;6.80;2.40;;;8.00;90.30;;;;;;5076329;28;21033;-72
2022/12/27 09:44:59;;;;;;;5.20;2.40;;;8.20;89.90;;;;;;5080582;28;20498;-72
2022/12/27 09:47:33;;;;;;;4.75;2.50;;;8.40;87.70;;;;;;5077721;28;20446;-75
2022/12/27 09:50:04;;;;;;;4.63;3.00;;;8.50;87.00;;;;;;5077446;28;20411;-72
2022/12/27 09:52:36;;;;;;;5.47;2.58;;;8.60;85.80;;;;;;5080383;28;20404;-72
2022/12/27 09:55:07;;;;;;;5.17;2.20;;;8.70;84.70;;;;;;5080932;28;20637;-72
2022/12/27 09:57:37;;;;;;;6.72;3.05;;;8.60;84.30;;;;;;5080392;28;20423;-71
2022/12/27 10:00:07;;;;;;;5.55;3.20;;;8.70;84.50;;;;;;5081352;28;20472;-72
2022/12/27 10:02:35;;;;;;;5.40;3.50;;;8.90;83.40;;;;;;5069635;28;20421;-72
2022/12/27 10:05:03;;;;;;;6.13;3.10;;;9.10;83.40;;;;;;5069005;28;20503;-72
2022/12/27 10:07:37;;;;;;;5.18;3.10;;;9.30;80.40;;;;;;5066376;28;20435;-71
2022/12/27 10:10:11;;;;;;;3.90;2.70;;;9.40;80.20;;;;;;5067376;28;20414;-71
2022/12/27 10:13:02;;;;;;;6.78;3.28;;;9.50;79.20;;;;;;5067892;28;20446;-72
2022/12/27 10:15:37;;;;;;;6.45;2.85;;;9.70;77.40;;;;;;5069338;28;20500;-71
2022/12/27 10:18:17;;;;;;;6.72;2.40;;;9.80;77.40;;;;;;5066397;28;20558;-72
2022/12/27 10:21:00;;;;;;;5.15;2.70;;;9.90;77.70;;;;;;5054806;28;20408;-72
2022/12/27 10:23:30;;;;;;;6.45;2.40;;;10.10;76.90;;;;;;5068806;28;20423;-72
2022/12/27 10:25:59;;;;;;;5.65;2.70;;;10.20;76.20;;;;;;5091805;28;20454;-72
2022/12/27 10:28:30;;;;;;;5.40;2.70;;;10.30;75.50;;;;;;5090160;28;20415;-72
2022/12/27 10:31:02;;;;;;;4.80;2.20;;;10.40;75.50;;;;;;5084694;28;20447;-71
2022/12/27 10:33:32;;;;;;;5.35;2.30;;;10.60;74.20;;;;;;5070077;28;20848;-72
2022/12/27 10:36:10;;;;;;;5.43;2.38;;;10.70;73.80;;;;;;5070604;28;20721;-71
2022/12/27 10:38:36;;;;;;;5.30;1.60;;;10.60;73.20;;;;;;5069190;28;20419;-72
2022/12/27 10:41:25;;;;;;;5.07;2.08;;;10.40;72.40;;;;;;5067439;28;20446;-71
2022/12/27 10:43:54;;;;;;;5.25;1.90;;;10.10;74.70;;;;;;5053603;28;20424;-71
2022/12/27 10:46:23;;;;;;;5.00;1.90;;;9.80;75.50;;;;;;5069027;28;20435;-72
2022/12/27 10:48:58;;;;;;;4.43;1.70;;;9.30;77.80;;;;;;5067328;28;20419;-71
2022/12/27 10:51:27;;;;;;;3.00;1.40;;;9.30;79.10;;;;;;5054431;28;20411;-71
2022/12/27 10:54:01;;;;;;;4.00;1.97;;;9.10;79.40;;;;;;5067055;28;20426;-72
2022/12/27 10:56:29;;;;;;;4.22;1.77;;;9.00;80.40;;;;;;5066529;28;20489;-71
2022/12/27 10:59:07;;;;;;;3.70;1.77;;;8.90;81.20;;;;;;5065828;28;20521;-71
2022/12/27 11:01:34;;;;;;;4.47;1.38;;;8.80;82.10;;;;;;5065471;28;20427;-71
2022/12/27 11:04:12;;;;;;;3.78;1.70;;;8.70;82.80;;;;;;5066318;28;20412;-71
2022/12/27 11:06:40;;;;;;;4.13;1.90;;;8.60;82.60;;;;;;5066406;28;20419;-71
2022/12/27 11:09:28;;;;;;;5.05;1.63;;;8.60;83.40;;;;;;5067256;28;20477;-72
2022/12/27 11:12:11;;;;;;;5.35;1.92;;;8.80;82.70;;;;;;5067865;28;20430;-72
2022/12/27 11:14:38;;;;;;;4.00;2.10;;;9.00;82.70;;;;;;5073866;28;20474;-72
2022/12/27 11:17:09;;;;;;;5.97;1.90;;;9.10;81.60;;;;;;5068071;28;20456;-71
2022/12/27 11:19:40;;;;;;;3.00;1.42;;;9.40;81.00;;;;;;5075455;28;20420;-72
2022/12/27 11:22:08;;;;;;;2.87;1.70;;;9.70;79.30;;;;;;5069471;28;20803;-73
2022/12/27 11:24:36;;;;;;;5.28;1.90;;;9.80;78.60;;;;;;5071503;28;20416;-72
2022/12/27 11:27:03;;;;;;;2.83;1.50;;;9.70;77.80;;;;;;5066780;28;20434;-72
2022/12/27 11:29:31;;;;;;;4.07;1.67;;;9.50;79.00;;;;;;5066317;28;20419;-72
2022/12/27 11:32:07;;;;;;;5.63;1.90;;;9.30;80.40;;;;;;5060298;28;20956;-72
2022/12/27 11:34:37;;;;;;;4.15;1.60;;;9.30;81.20;;;;;;5066198;28;20419;-72
2022/12/27 11:37:09;;;;;;;4.40;1.70;;;9.20;81.40;;;;;;5066744;28;20423;-72
2022/12/27 11:39:42;;;;;;;2.72;1.35;;;9.10;81.50;;;;;;5066310;28;20422;-72
2022/12/27 11:42:18;;;;;;;3.13;2.00;;;9.00;82.80;;;;;;5065902;28;20443;-72
2022/12/27 11:44:51;;;;;;;4.55;1.77;;;9.00;82.60;;;;;;5064556;28;20407;-72
2022/12/27 11:47:27;;;;;;;3.10;1.35;;;9.00;82.90;;;;;;5064980;28;20858;-72
2022/12/27 11:50:00;;;;;;;4.72;2.00;;;8.90;83.40;;;;;;5053623;28;20447;-72
2022/12/27 11:52:53;;;;;;;3.05;1.10;;;8.80;83.90;;;;;;5065368;28;20419;-72
2022/12/27 11:55:45;;;;;;;4.35;1.25;;;8.70;86.40;;;;;;5065709;28;20466;-72
2022/12/27 11:58:51;;;;;;;2.97;1.42;;;8.60;89.00;;;;;;5066317;28;20897;-72
2022/12/27 12:01:53;;;;;;;4.72;1.42;;;8.50;90.80;;;;;;5075458;28;20423;-72
2022/12/27 12:04:46;;;;;;;2.95;1.30;;;8.40;91.60;;;;;;5069013;28;20416;-72
2022/12/27 12:07:29;;;;;;;3.45;1.33;;;8.30;90.50;;;;;;5068253;28;20437;-72
2022/12/27 12:10:10;;;;;;;3.20;1.40;;;8.30;91.10;;;;;;5071618;28;20997;-73
2022/12/27 12:13:16;;;;;;;6.45;2.20;;;8.30;91.50;;;;;;5058802;28;21134;-72
2022/12/27 12:16:05;;;;;;;2.97;1.60;;;8.40;92.30;;;;;;5070403;28;20798;-72
2022/12/27 12:18:49;;;;;;;4.50;1.48;;;8.70;91.80;;;;;;5067465;28;20881;-72
2022/12/27 12:21:25;;;;;;;2.40;1.20;;;9.00;90.20;;;;;;5063856;28;20415;-71
2022/12/27 12:24:28;;;;;;;3.47;1.65;;;9.20;88.00;;;;;;5059001;28;20960;-72
2022/12/27 12:27:16;;;;;;;5.47;1.80;;;9.20;89.00;;;;;;5060635;28;20429;-72
2022/12/27 12:30:01;;;;;;;3.03;1.58;;;9.10;88.40;;;;;;5059872;28;20431;-72
2022/12/27 12:32:35;;;;;;;4.82;1.60;;;9.00;87.70;;;;;;5058452;28;20427;-72
2022/12/27 12:35:32;;;;;;;3.87;1.30;;;9.00;87.20;;;;;;5064511;28;20970;-72
2022/12/27 12:38:11;;;;;;;2.22;1.35;;;9.00;85.90;;;;;;5063039;28;20471;-74
2022/12/27 12:41:06;;;;;;;4.10;1.60;;;9.00;88.40;;;;;;5064679;28;20468;-71
2022/12/27 12:44:11;;;;;;;3.30;1.30;;;9.00;87.20;;;;;;5058874;28;20435;-72
2022/12/27 12:46:44;;;;;;;5.13;1.65;;;9.20;87.00;;;;;;5018012;28;20491;-72
2022/12/27 12:49:30;;;;;;;3.10;1.70;;;9.50;85.80;;;;;;5064728;28;20859;-72
2022/12/27 12:52:15;;;;;;;2.92;1.63;;;9.60;83.10;;;;;;5065007;28;20422;-72
2022/12/27 12:55:00;;;;;;;4.32;1.70;;;9.50;83.10;;;;;;5064759;28;20499;-72
2022/12/27 12:57:39;;;;;;;3.15;1.70;;;9.60;82.70;;;;;;5065491;28;20886;-71
2022/12/27 13:00:26;;;;;;;3.65;1.55;;;9.80;81.00;;;;;;5064026;28;20435;-72
2022/12/27 13:03:26;;;;;;;3.83;1.52;;;10.10;76.70;;;;;;5061866;28;20408;-71
2022/12/27 13:06:03;;;;;;;4.53;1.70;;;10.00;75.90;;;;;;5064719;28;20415;-72
2022/12/27 13:08:35;;;;;;;3.88;1.40;;;9.80;75.50;;;;;;5063089;28;20904;-72
2022/12/27 13:11:23;;;;;;;6.85;1.60;;;9.60;77.00;;;;;;5064998;28;20902;-71
2022/12/27 13:14:01;;;;;;;4.47;1.50;;;9.60;77.10;;;;;;5064622;28;20434;-71
2022/12/27 13:16:40;;;;;;;3.35;1.65;;;9.70;77.60;;;;;;5061485;28;20944;-72
2022/12/27 13:19:25;;;;;;;3.90;1.60;;;9.80;77.00;;;;;;5063920;28;20458;-71
2022/12/27 13:22:03;;;;;;;3.10;1.40;;;9.90;76.00;;;;;;5064752;28;20749;-72
2022/12/27 13:24:42;;;;;;;6.10;2.10;;;9.90;75.70;;;;;;5074914;28;20440;-71
2022/12/27 13:27:20;;;;;;;3.13;1.50;;;9.90;75.30;;;;;;5052193;28;20415;-72
2022/12/27 13:29:55;;;;;;;5.82;1.42;;;9.80;75.50;;;;;;5065309;28;20419;-73
2022/12/27 13:32:35;;;;;;;3.50;1.67;;;9.80;77.10;;;;;;5078717;28;20423;-72
2022/12/27 13:35:22;;;;;;;3.50;1.38;;;10.00;75.50;;;;;;5069381;28;20395;-73
2022/12/27 13:37:57;;;;;;;3.67;1.20;;;10.20;73.40;;;;;;5083289;28;20912;-72
2022/12/27 13:40:59;;;;;;;7.10;1.90;;;10.60;72.00;;;;;;5067101;28;20430;-71
2022/12/27 13:43:49;;;;;;;3.83;1.60;;;11.50;70.60;;;;;;5059530;28;20415;-72
2022/12/27 13:46:38;;;;;;;4.17;1.20;;;11.80;66.40;;;;;;5066143;28;20498;-71
2022/12/27 13:49:41;;;;;;;4.03;1.30;;;12.10;65.90;;;;;;5064863;28;20846;-72
2022/12/27 13:52:17;;;;;;;5.47;1.50;;;12.20;65.80;;;;;;5064256;28;20634;-74
2022/12/27 13:55:15;;;;;;;2.80;1.30;;;12.30;64.00;;;;;;5064842;28;20443;-71
2022/12/27 13:58:24;;;;;;;6.00;1.70;;;12.10;63.50;;;;;;5067052;28;20431;-71
2022/12/27 14:01:01;;;;;;;3.60;1.20;;;11.30;65.40;;;;;;5057924;28;20422;-71
2022/12/27 14:03:51;;;;;;;3.45;1.25;;;10.80;67.10;;;;;;5067567;28;20749;-71
2022/12/27 14:06:52;;;;;;;4.30;1.47;;;10.40;69.40;;;;;;5068514;28;20427;-73
2022/12/27 14:09:33;;;;;;;3.88;1.60;;;10.20;71.40;;;;;;5052901;28;20423;-72
2022/12/27 14:12:31;;;;;;;4.47;1.60;;;9.90;71.90;;;;;;5087706;28;20411;-71
2022/12/27 14:15:01;;;;;;;4.50;1.60;;;9.90;72.10;;;;;;5083775;28;20423;-71
2022/12/27 14:17:34;;;;;;;4.43;1.10;;;9.80;72.30;;;;;;5082111;28;20423;-71
2022/12/27 14:20:25;;;;;;;3.67;1.25;;;9.70;72.80;;;;;;5077900;28;20412;-71
2022/12/27 14:23:16;;;;;;;3.40;1.55;;;9.60;72.70;;;;;;5070475;28;20432;-72
2022/12/27 14:26:16;;;;;;;3.92;1.48;;;9.50;73.50;;;;;;5065097;28;20403;-71
2022/12/27 14:29:10;;;;;;;3.38;1.20;;;9.50;72.40;;;;;;5068608;28;20427;-72
2022/12/27 14:32:08;;;;;;;4.35;1.40;;;9.40;73.10;;;;;;5063515;28;20522;-72
2022/12/27 14:35:15;;;;;;;3.73;1.50;;;9.30;74.30;;;;;;5062992;28;20528;-71
2022/12/27 14:38:10;;;;;;;5.55;2.20;;;9.20;73.70;;;;;;5057935;28;20437;-71
2022/12/27 14:41:00;;;;;;;4.45;1.75;;;9.20;74.60;;;;;;5060562;28;20463;-72
2022/12/27 14:43:57;;;;;;;4.07;1.60;;;9.10;74.60;;;;;;5064101;28;21023;-71
2022/12/27 14:46:46;;;;;;;3.75;1.45;;;9.00;74.70;;;;;;5061679;28;20457;-71
2022/12/27 14:49:54;;;;;;;3.42;1.20;;;9.00;75.00;;;;;;5058902;28;20752;-71
2022/12/27 14:52:57;;;;;;;3.45;1.75;;;9.00;76.20;;;;;;5056539;28;20419;-72
2022/12/27 14:55:44;;;;;;;2.78;1.30;;;8.90;76.00;;;;;;5055952;28;20456;-71
2022/12/27 14:58:29;;;;;;;2.72;1.77;;;8.80;76.80;;;;;;5066667;28;20435;-72
2022/12/27 15:01:05;;;;;;;3.90;1.50;;;8.80;77.10;;;;;;5071619;28;20443;-72
2022/12/27 15:03:47;;;;;;;3.08;1.70;;;8.80;77.40;;;;;;5063553;28;20426;-72
2022/12/27 15:06:25;;;;;;;4.00;1.50;;;8.70;76.70;;;;;;5065908;28;20466;-71
2022/12/27 15:09:01;;;;;;;2.72;1.48;;;8.60;77.60;;;;;;5066518;28;20821;-71
2022/12/27 15:11:46;;;;;;;4.10;1.50;;;8.60;78.50;;;;;;5053866;28;20434;-71
2022/12/27 15:14:28;;;;;;;3.90;1.50;;;8.50;77.80;;;;;;5066197;28;20415;-71